Time;durP1;ratioP1;P1;durP2;ratioP2;P2;SDS_P1;SDS_P2;PMS_P1;PMS_P2;Temp;Humidity;BMP_temperature;BMP_pressure;BME280_temperature;BME280_humidity;BME280_pressure;Samples;Min_cycle;Max_cycle;Signal;HPM_P1;HPM_P2
2021/03/06 00:01:16;;;;;;;8.75;5.07;;;20.90;28.70;;;;;;5079230;28;20448;-72
2021/03/06 00:03:41;;;;;;;5.70;4.00;;;20.90;29.20;;;;;;5091382;28;20031;-72
2021/03/06 00:06:07;;;;;;;4.97;3.22;;;20.90;28.80;;;;;;5091782;28;20557;-72
2021/03/06 00:08:33;;;;;;;10.30;4.70;;;20.90;28.80;;;;;;5073725;28;20046;-72
2021/03/06 00:10:58;;;;;;;10.70;5.97;;;20.90;28.80;;;;;;5092080;28;20028;-72
2021/03/06 00:13:24;;;;;;;8.88;6.25;;;20.80;28.80;;;;;;5091012;28;20035;-72
2021/03/06 00:15:50;;;;;;;9.98;6.97;;;20.80;28.80;;;;;;5090215;28;20058;-72
2021/03/06 00:18:15;;;;;;;8.82;6.32;;;20.80;28.80;;;;;;5088164;28;20024;-72
2021/03/06 00:20:41;;;;;;;9.57;6.35;;;20.80;28.80;;;;;;5083640;28;20043;-75
2021/03/06 00:23:06;;;;;;;6.85;5.45;;;20.80;28.80;;;;;;5091173;28;20020;-76
2021/03/06 00:25:32;;;;;;;13.05;6.20;;;20.80;28.90;;;;;;5091221;28;20047;-78
2021/03/06 00:27:57;;;;;;;19.52;9.25;;;20.80;28.80;;;;;;5088386;28;20032;-79
2021/03/06 00:30:24;;;;;;;20.92;11.32;;;20.80;28.80;;;;;;5091262;28;20036;-76
2021/03/06 00:32:49;;;;;;;15.70;7.90;;;20.80;28.90;;;;;;5091636;28;20056;-77
2021/03/06 00:35:15;;;;;;;15.23;7.65;;;20.80;28.90;;;;;;5095579;28;20077;-78
2021/03/06 00:37:41;;;;;;;6.53;3.92;;;20.80;28.80;;;;;;5091773;28;20449;-77
2021/03/06 00:40:08;;;;;;;6.45;4.50;;;20.80;28.90;;;;;;5074580;28;20027;-77
2021/03/06 00:42:34;;;;;;;8.10;4.13;;;20.80;28.90;;;;;;5088219;28;20591;-78
2021/03/06 00:44:59;;;;;;;9.73;6.15;;;20.70;28.90;;;;;;5093854;28;20083;-77
2021/03/06 00:47:25;;;;;;;12.57;7.03;;;20.80;28.90;;;;;;5094709;28;20048;-77
2021/03/06 00:49:50;;;;;;;9.65;5.95;;;20.70;29.30;;;;;;5082819;28;20043;-78
2021/03/06 00:52:16;;;;;;;12.50;6.05;;;20.70;28.90;;;;;;5097183;28;20044;-77
2021/03/06 00:54:42;;;;;;;9.52;6.55;;;20.70;28.90;;;;;;5094118;28;20024;-78
2021/03/06 00:57:07;;;;;;;8.82;6.28;;;20.70;28.80;;;;;;5092447;28;20104;-78
2021/03/06 00:59:33;;;;;;;7.57;3.83;;;20.70;28.90;;;;;;5092337;28;20058;-79
2021/03/06 01:01:58;;;;;;;11.02;6.50;;;20.70;28.90;;;;;;5092583;28;20040;-77
2021/03/06 01:04:27;;;;;;;6.78;5.13;;;20.70;28.90;;;;;;5093875;28;20484;-77
2021/03/06 01:06:53;;;;;;;6.50;4.80;;;20.60;28.80;;;;;;5076389;28;20036;-78
2021/03/06 01:09:19;;;;;;;7.57;4.20;;;20.70;28.90;;;;;;5076034;28;20032;-78
2021/03/06 01:11:44;;;;;;;5.47;4.05;;;20.60;28.90;;;;;;5090918;28;20040;-78
2021/03/06 01:14:10;;;;;;;5.13;3.80;;;20.60;28.80;;;;;;5094107;28;20024;-78
2021/03/06 01:16:36;;;;;;;5.20;3.90;;;20.60;28.90;;;;;;5076292;28;20150;-77
2021/03/06 01:19:01;;;;;;;6.85;4.20;;;20.60;28.90;;;;;;5094519;28;20050;-78
2021/03/06 01:21:36;;;;;;;6.20;4.03;;;20.60;28.90;;;;;;5092283;28;20050;-77
2021/03/06 01:24:02;;;;;;;4.00;3.58;;;20.60;28.80;;;;;;5091897;28;20103;-77
2021/03/06 01:29:49;;;;;;;8.45;4.00;;;20.60;28.90;;;;;;5095199;28;20031;-80
2021/03/06 01:32:15;;;;;;;5.57;3.50;;;20.60;28.90;;;;;;5092213;28;20044;-81
2021/03/06 01:34:40;;;;;;;4.47;3.40;;;20.50;28.90;;;;;;5108886;28;20047;-79
2021/03/06 01:37:07;;;;;;;4.53;3.38;;;20.50;28.90;;;;;;5095410;28;20517;-83
2021/03/06 01:39:32;;;;;;;7.50;3.50;;;20.50;28.90;;;;;;5077019;28;20066;-79
2021/03/06 01:41:58;;;;;;;4.82;2.80;;;20.50;28.90;;;;;;5075565;28;20044;-78
2021/03/06 01:44:24;;;;;;;7.28;3.55;;;20.40;28.90;;;;;;5094133;28;20406;-80
2021/03/06 01:46:50;;;;;;;9.50;3.53;;;20.50;29.00;;;;;;5058310;28;20077;-79
2021/03/06 01:49:15;;;;;;;6.43;3.58;;;20.40;28.90;;;;;;5091853;28;20032;-78
2021/03/06 01:51:41;;;;;;;5.30;3.38;;;20.40;28.90;;;;;;5092014;28;20089;-79
2021/03/06 01:54:07;;;;;;;4.63;3.45;;;20.40;29.00;;;;;;5092228;28;20427;-78
2021/03/06 01:56:32;;;;;;;9.00;4.63;;;20.40;29.00;;;;;;5092038;28;20523;-79
2021/03/06 01:58:59;;;;;;;4.22;3.83;;;20.40;29.00;;;;;;5092396;28;20028;-78
2021/03/06 02:01:25;;;;;;;5.82;3.88;;;20.40;29.00;;;;;;5075634;28;20040;-80
2021/03/06 02:03:50;;;;;;;5.85;3.75;;;20.40;29.00;;;;;;5091676;28;20067;-81
2021/03/06 02:06:19;;;;;;;4.10;3.38;;;20.40;29.00;;;;;;5091958;28;20028;-77
2021/03/06 02:08:46;;;;;;;3.95;3.42;;;20.40;29.00;;;;;;5092238;28;20032;-79
2021/03/06 02:11:18;;;;;;;5.72;3.40;;;20.40;29.00;;;;;;5086717;28;20024;-80
2021/03/06 02:14:02;;;;;;;4.35;3.28;;;20.40;28.90;;;;;;5076999;28;20038;-77
2021/03/06 02:16:33;;;;;;;4.05;3.22;;;20.40;28.90;;;;;;5089114;28;20089;-72
2021/03/06 02:19:27;;;;;;;7.50;3.45;;;20.40;29.00;;;;;;5088188;28;20024;-79
2021/03/06 02:22:34;;;;;;;4.47;3.10;;;20.40;29.00;;;;;;5049115;28;20610;-77
2021/03/06 02:25:18;;;;;;;;;;;20.40;28.90;;;;;;4981946;28;20407;-79
2021/03/06 02:28:10;;;;;;;6.82;3.60;;;20.40;29.00;;;;;;4959329;28;20320;-79
2021/03/06 02:30:36;;;;;;;5.07;3.75;;;20.40;28.90;;;;;;4968883;28;20121;-79
2021/03/06 02:33:02;;;;;;;3.28;2.90;;;20.30;28.90;;;;;;4969835;28;20049;-78
2021/03/06 02:35:30;;;;;;;7.72;3.50;;;20.30;29.00;;;;;;4961840;28;20872;-79
2021/03/06 02:38:04;;;;;;;4.78;3.30;;;20.30;28.90;;;;;;4965869;28;20510;-81
2021/03/06 02:40:30;;;;;;;5.82;3.30;;;20.30;28.90;;;;;;4974053;28;20034;-78
2021/03/06 02:42:55;;;;;;;6.05;4.03;;;20.30;29.00;;;;;;4955953;28;20034;-80
2021/03/06 02:45:21;;;;;;;7.65;3.30;;;20.30;28.90;;;;;;4966236;28;20054;-78
2021/03/06 02:47:47;;;;;;;6.13;3.45;;;20.30;28.90;;;;;;4959713;28;20034;-77
2021/03/06 02:50:13;;;;;;;4.22;3.28;;;20.30;29.00;;;;;;4950833;28;20132;-76
2021/03/06 02:52:38;;;;;;;5.97;3.38;;;20.30;29.00;;;;;;4960360;28;20743;-75
2021/03/06 02:55:06;;;;;;;6.13;3.45;;;20.30;29.00;;;;;;4961213;28;20046;-76
2021/03/06 02:57:31;;;;;;;5.20;2.60;;;20.20;28.90;;;;;;4954809;28;20141;-77
2021/03/06 03:00:06;;;;;;;6.70;3.30;;;20.20;29.10;;;;;;5025498;28;20101;-76
2021/03/06 03:02:56;;;;;;;5.07;3.70;;;20.20;29.00;;;;;;5067210;28;20058;-78
2021/03/06 03:05:33;;;;;;;3.50;2.80;;;20.20;29.10;;;;;;5092424;28;20274;-77
2021/03/06 03:08:31;;;;;;;5.40;3.17;;;20.20;29.10;;;;;;5088492;28;20468;-77
2021/03/06 03:11:01;;;;;;;4.35;3.15;;;20.20;29.00;;;;;;5041142;28;20132;-77
2021/03/06 03:13:55;;;;;;;3.88;2.70;;;20.10;29.00;;;;;;5050653;28;20095;-78
2021/03/06 03:16:22;;;;;;;6.82;4.22;;;20.10;29.10;;;;;;4986497;28;20034;-78
2021/03/06 03:18:53;;;;;;;6.45;4.15;;;20.10;29.10;;;;;;4938865;28;20047;-78
2021/03/06 03:21:23;;;;;;;4.75;3.78;;;20.10;29.10;;;;;;4986760;28;20145;-78
2021/03/06 03:24:02;;;;;;;9.48;4.15;;;20.10;29.10;;;;;;4987695;28;20136;-78
2021/03/06 03:26:27;;;;;;;5.43;3.75;;;20.10;29.00;;;;;;4955219;28;20082;-78
2021/03/06 03:28:53;;;;;;;5.38;3.40;;;20.10;29.20;;;;;;4954745;28;20035;-78
2021/03/06 03:31:19;;;;;;;6.30;3.55;;;20.10;29.20;;;;;;4984812;28;20577;-78
2021/03/06 03:33:44;;;;;;;4.78;3.50;;;20.10;29.10;;;;;;4971034;28;20436;-78
2021/03/06 03:36:10;;;;;;;4.72;3.38;;;20.00;29.10;;;;;;4971414;28;20045;-78
2021/03/06 03:38:36;;;;;;;8.35;3.53;;;20.00;29.20;;;;;;4971334;28;20023;-78
2021/03/06 03:41:03;;;;;;;3.60;2.92;;;20.00;29.10;;;;;;4985198;28;20135;-79
2021/03/06 03:43:28;;;;;;;4.20;2.63;;;20.00;29.20;;;;;;4969756;28;20031;-79
2021/03/06 03:45:54;;;;;;;7.43;3.38;;;20.00;29.20;;;;;;4984629;28;20543;-78
2021/03/06 03:48:32;;;;;;;4.30;3.35;;;20.00;29.10;;;;;;5022228;28;20062;-78
2021/03/06 03:50:58;;;;;;;3.40;2.53;;;20.00;29.10;;;;;;5024309;28;20046;-79
2021/03/06 03:53:24;;;;;;;6.03;3.42;;;20.00;29.10;;;;;;5048252;28;20028;-78
2021/03/06 03:55:50;;;;;;;8.23;3.80;;;20.00;29.00;;;;;;5090611;28;20446;-78
2021/03/06 03:58:15;;;;;;;2.97;2.45;;;20.00;29.00;;;;;;5089738;28;20047;-78
2021/03/06 04:00:41;;;;;;;5.82;3.42;;;20.00;29.10;;;;;;5074326;28;20028;-78
2021/03/06 04:03:15;;;;;;;6.07;3.35;;;20.00;29.10;;;;;;5093445;28;20031;-78
2021/03/06 04:05:41;;;;;;;3.60;3.28;;;20.00;29.00;;;;;;5094960;28;20024;-78
2021/03/06 04:08:06;;;;;;;5.20;3.70;;;20.00;29.10;;;;;;5085872;28;20087;-78
2021/03/06 04:10:32;;;;;;;6.82;3.83;;;20.00;29.10;;;;;;5097530;28;20119;-78
2021/03/06 04:12:57;;;;;;;5.40;3.85;;;20.00;29.10;;;;;;5077666;28;20052;-78
2021/03/06 04:15:24;;;;;;;5.50;3.60;;;20.00;29.10;;;;;;5077990;28;20032;-78
2021/03/06 04:17:49;;;;;;;7.85;4.65;;;20.00;29.10;;;;;;5082901;28;20076;-77
2021/03/06 04:20:20;;;;;;;4.00;3.60;;;20.00;29.10;;;;;;5091102;28;20089;-78
2021/03/06 04:22:46;;;;;;;5.47;3.75;;;20.00;29.10;;;;;;5094554;28;20114;-77
2021/03/06 04:25:12;;;;;;;7.72;4.20;;;20.00;29.20;;;;;;5076960;28;20120;-78
2021/03/06 04:27:37;;;;;;;5.82;4.07;;;19.90;29.10;;;;;;5070381;28;20064;-80
2021/03/06 04:30:05;;;;;;;7.43;3.97;;;19.90;29.10;;;;;;5093850;28;20519;-80
2021/03/06 04:32:31;;;;;;;8.98;4.07;;;19.90;29.10;;;;;;5076904;28;20036;-79
2021/03/06 04:34:57;;;;;;;5.38;4.00;;;19.90;29.10;;;;;;5095426;28;20020;-79
2021/03/06 04:37:22;;;;;;;6.25;3.72;;;19.90;29.20;;;;;;5069958;28;20063;-80
2021/03/06 04:39:48;;;;;;;5.55;3.80;;;19.90;29.20;;;;;;5098741;28;20031;-72
2021/03/06 04:42:14;;;;;;;4.55;3.50;;;19.90;29.20;;;;;;5083079;28;20063;-71
2021/03/06 04:44:39;;;;;;;3.00;2.60;;;19.80;29.20;;;;;;5094231;28;20102;-72
2021/03/06 04:47:05;;;;;;;7.07;3.88;;;19.80;29.20;;;;;;5093816;28;20487;-71
2021/03/06 04:49:34;;;;;;;4.78;3.97;;;19.80;29.10;;;;;;5077479;28;20028;-72
2021/03/06 04:52:00;;;;;;;3.13;2.80;;;19.80;29.20;;;;;;5094145;28;20032;-72
2021/03/06 04:54:25;;;;;;;4.72;3.00;;;19.80;29.30;;;;;;5094197;28;20036;-72
2021/03/06 04:56:51;;;;;;;4.10;3.67;;;19.80;29.20;;;;;;5092522;28;20028;-78
2021/03/06 04:59:41;;;;;;;3.28;2.67;;;19.80;29.20;;;;;;5091841;28;20383;-78
2021/03/06 05:02:07;;;;;;;0.05;0.05;;;19.80;29.30;;;;;;5088635;28;20020;-78
2021/03/06 05:04:32;;;;;;;5.32;3.70;;;19.80;29.30;;;;;;5095917;28;20081;-78
2021/03/06 05:06:58;;;;;;;1.98;0.57;;;19.70;29.40;;;;;;5093463;28;20092;-78
2021/03/06 05:09:24;;;;;;;5.90;3.60;;;19.70;29.30;;;;;;5093496;28;20024;-78
2021/03/06 05:11:49;;;;;;;0.10;0.00;;;19.70;29.40;;;;;;5095841;28;20020;-78
2021/03/06 05:14:15;;;;;;;4.00;3.60;;;19.70;29.50;;;;;;5094536;28;20102;-77
2021/03/06 05:16:40;;;;;;;0.10;0.10;;;19.70;29.50;;;;;;5077922;28;20024;-80
2021/03/06 05:19:06;;;;;;;7.07;4.00;;;19.70;29.50;;;;;;5094574;28;20028;-80
2021/03/06 05:21:32;;;;;;;0.22;0.22;;;19.70;29.50;;;;;;5094292;28;20407;-80
2021/03/06 05:23:57;;;;;;;7.57;4.22;;;19.70;29.50;;;;;;5093871;28;20124;-81
2021/03/06 05:26:23;;;;;;;0.85;0.20;;;19.70;29.50;;;;;;5092088;28;20111;-80
2021/03/06 05:28:48;;;;;;;8.18;4.60;;;19.70;29.50;;;;;;5094645;28;20039;-81
2021/03/06 05:31:14;;;;;;;3.60;1.98;;;19.70;29.50;;;;;;5094156;28;20071;-79
2021/03/06 05:33:39;;;;;;;7.30;4.75;;;19.70;29.60;;;;;;5092993;28;20032;-81
2021/03/06 05:36:06;;;;;;;4.88;3.80;;;19.70;29.50;;;;;;5092469;28;20069;-80
2021/03/06 05:38:31;;;;;;;4.00;3.35;;;19.70;29.50;;;;;;5093795;28;20095;-80
2021/03/06 05:41:50;;;;;;;3.63;3.00;;;19.70;29.50;;;;;;5092595;28;20100;-79
2021/03/06 05:44:15;;;;;;;4.28;3.70;;;19.70;29.60;;;;;;5093187;28;20077;-78
2021/03/06 05:46:42;;;;;;;1.20;0.57;;;19.70;30.00;;;;;;5091957;28;20024;-79
2021/03/06 05:49:07;;;;;;;5.50;3.58;;;19.70;29.60;;;;;;5076065;28;20406;-81
2021/03/06 05:51:37;;;;;;;3.92;1.58;;;19.70;29.60;;;;;;5075435;28;20051;-79
2021/03/06 05:54:06;;;;;;;6.03;5.00;;;19.70;29.70;;;;;;5093056;28;20434;-79
2021/03/06 05:56:33;;;;;;;2.63;1.25;;;19.60;29.60;;;;;;5091336;28;20023;-78
2021/03/06 05:59:02;;;;;;;6.30;5.10;;;19.70;29.70;;;;;;5092737;28;20020;-79
2021/03/06 06:01:27;;;;;;;0.73;0.50;;;19.70;29.70;;;;;;5077180;28;20024;-78
2021/03/06 06:03:53;;;;;;;6.13;4.68;;;19.60;29.80;;;;;;5093512;28;20024;-79
2021/03/06 06:06:25;;;;;;;2.20;1.52;;;19.60;29.70;;;;;;5071492;28;20023;-78
2021/03/06 06:08:50;;;;;;;5.57;4.60;;;19.60;29.80;;;;;;5091470;28;20126;-78
2021/03/06 06:11:16;;;;;;;2.92;2.63;;;19.60;29.70;;;;;;5092210;28;20521;-78
2021/03/06 06:13:41;;;;;;;5.50;4.13;;;19.60;29.80;;;;;;5089753;28;20057;-80
2021/03/06 06:16:07;;;;;;;3.40;1.98;;;19.60;29.80;;;;;;5093057;28;20532;-79
2021/03/06 06:18:32;;;;;;;7.13;4.18;;;19.60;30.00;;;;;;5093619;28;20084;-79
2021/03/06 06:20:58;;;;;;;1.45;1.10;;;19.50;29.80;;;;;;5091899;28;20035;-83
2021/03/06 06:23:23;;;;;;;5.28;4.20;;;19.60;29.90;;;;;;5092610;28;20095;-79
2021/03/06 06:25:49;;;;;;;0.35;0.35;;;19.60;29.80;;;;;;5092207;28;20020;-78
2021/03/06 06:28:15;;;;;;;7.25;4.47;;;19.50;30.00;;;;;;5091319;28;20396;-78
2021/03/06 06:30:40;;;;;;;6.30;2.55;;;19.50;29.90;;;;;;5092862;28;20081;-77
2021/03/06 06:33:06;;;;;;;5.78;5.18;;;19.50;30.00;;;;;;5089250;28;20400;-76
2021/03/06 06:35:41;;;;;;;4.15;3.20;;;19.50;30.00;;;;;;5092903;28;20031;-78
2021/03/06 06:38:07;;;;;;;6.30;4.68;;;19.50;30.10;;;;;;5093327;28;20044;-79
2021/03/06 06:40:34;;;;;;;6.10;3.80;;;19.60;30.40;;;;;;5088328;28;20056;-79
2021/03/06 06:43:00;;;;;;;6.90;3.97;;;19.60;30.40;;;;;;5090076;28;20024;-72
2021/03/06 06:45:35;;;;;;;4.00;3.22;;;19.70;30.40;;;;;;5091332;28;20035;-72
2021/03/06 06:48:08;;;;;;;8.23;6.63;;;19.80;30.40;;;;;;5074665;28;20035;-73
2021/03/06 06:50:34;;;;;;;8.35;4.85;;;19.80;30.20;;;;;;5072972;28;20051;-73
2021/03/06 06:56:25;;;;;;;2.53;0.85;;;20.00;30.10;;;;;;5092300;28;20035;-73
2021/03/06 06:58:51;;;;;;;7.15;4.53;;;20.20;30.20;;;;;;5090821;28;20396;-77
2021/03/06 07:01:30;;;;;;;0.32;0.25;;;20.20;30.00;;;;;;5087383;28;20040;-77
2021/03/06 07:04:00;;;;;;;7.93;4.97;;;20.30;29.80;;;;;;5082746;28;20542;-77
2021/03/06 07:06:25;;;;;;;0.30;0.20;;;20.40;29.80;;;;;;5092677;28;20020;-76
2021/03/06 07:08:51;;;;;;;6.45;4.78;;;20.50;29.70;;;;;;5073895;28;20526;-73
2021/03/06 07:11:26;;;;;;;6.47;4.32;;;20.60;29.70;;;;;;5090448;28;20028;-72
2021/03/06 07:13:51;;;;;;;0.47;0.47;;;20.70;29.50;;;;;;5073662;28;20035;-72
2021/03/06 07:16:17;;;;;;;16.02;8.75;;;20.80;29.40;;;;;;5089903;28;20020;-72
2021/03/06 07:18:43;;;;;;;0.85;0.50;;;20.90;29.30;;;;;;5090498;28;20020;-72
2021/03/06 07:21:08;;;;;;;21.73;11.85;;;20.90;29.10;;;;;;5088979;28;20146;-73
2021/03/06 07:23:34;;;;;;;1.10;0.60;;;21.10;29.10;;;;;;5090288;28;20028;-72
2021/03/06 07:25:59;;;;;;;15.93;10.40;;;21.10;28.90;;;;;;5073794;28;20031;-72
2021/03/06 07:28:26;;;;;;;12.63;6.45;;;21.20;28.90;;;;;;5091550;28;20028;-72
2021/03/06 07:31:06;;;;;;;0.55;0.50;;;21.30;28.80;;;;;;5089915;28;20035;-72
2021/03/06 07:33:32;;;;;;;6.57;5.28;;;21.30;28.70;;;;;;5073839;28;20055;-72
2021/03/06 07:36:01;;;;;;;0.32;0.32;;;21.30;28.70;;;;;;5090606;28;20016;-72
2021/03/06 07:38:26;;;;;;;9.07;5.60;;;21.40;28.70;;;;;;5081029;28;20125;-72
2021/03/06 07:40:56;;;;;;;9.18;5.10;;;21.40;28.70;;;;;;5104446;28;20506;-72
2021/03/06 07:43:24;;;;;;;0.75;0.40;;;21.50;28.60;;;;;;5080340;28;20021;-72
2021/03/06 07:46:08;;;;;;;8.75;5.80;;;21.50;28.60;;;;;;5096471;28;20112;-72
2021/03/06 07:48:42;;;;;;;0.17;0.17;;;21.50;28.50;;;;;;5094538;28;20031;-72
2021/03/06 07:51:17;;;;;;;0.68;0.50;;;21.60;28.50;;;;;;5080732;28;20020;-77
2021/03/06 07:53:46;;;;;;;7.60;5.80;;;21.60;28.40;;;;;;5080367;28;20110;-77
2021/03/06 07:56:11;;;;;;;0.47;0.45;;;21.60;28.40;;;;;;5097378;28;20024;-77
2021/03/06 07:58:50;;;;;;;1.17;0.57;;;21.70;28.40;;;;;;5092863;28;20034;-77
2021/03/06 08:01:26;;;;;;;8.40;5.90;;;21.70;28.30;;;;;;5098006;28;20035;-77
2021/03/06 08:03:51;;;;;;;0.98;0.47;;;21.70;28.30;;;;;;5098777;28;20024;-76
2021/03/06 08:06:24;;;;;;;0.95;0.77;;;21.70;28.30;;;;;;5097331;28;20499;-74
2021/03/06 08:08:52;;;;;;;7.95;6.22;;;21.80;28.30;;;;;;5097164;28;20070;-75
2021/03/06 08:11:19;;;;;;;12.35;5.50;;;21.80;28.30;;;;;;5098232;28;20548;-75
2021/03/06 08:13:55;;;;;;;1.85;1.00;;;21.80;28.20;;;;;;5096649;28;20487;-75
2021/03/06 08:16:23;;;;;;;4.00;0.70;;;21.80;28.20;;;;;;5095984;28;20032;-76
2021/03/06 08:18:53;;;;;;;2.47;1.33;;;21.90;28.30;;;;;;5097572;28;20093;-75
2021/03/06 08:21:35;;;;;;;5.93;4.32;;;21.90;28.30;;;;;;5076322;28;20032;-75
2021/03/06 08:24:18;;;;;;;0.52;0.52;;;21.90;28.10;;;;;;5098494;28;20111;-76
2021/03/06 08:27:02;;;;;;;3.72;1.10;;;22.00;28.20;;;;;;5094993;28;20047;-73
2021/03/06 08:29:28;;;;;;;0.73;0.65;;;22.00;28.20;;;;;;5098130;28;20055;-73
2021/03/06 08:32:02;;;;;;;1.85;1.15;;;22.00;28.10;;;;;;5098400;28;20036;-73
2021/03/06 08:34:50;;;;;;;2.05;0.95;;;22.00;28.10;;;;;;5084300;28;20541;-73
2021/03/06 08:37:16;;;;;;;1.58;0.95;;;22.00;28.00;;;;;;5096595;28;20016;-73
2021/03/06 08:39:47;;;;;;;1.88;1.13;;;22.10;28.00;;;;;;5100200;28;20024;-73
2021/03/06 08:42:14;;;;;;;2.15;1.35;;;22.10;28.00;;;;;;5101305;28;20032;-72
2021/03/06 08:44:40;;;;;;;0.63;0.63;;;22.10;28.00;;;;;;5091446;28;20032;-74
2021/03/06 08:47:06;;;;;;;1.50;1.00;;;22.10;28.00;;;;;;5099452;28;20023;-74
2021/03/06 08:49:32;;;;;;;2.03;0.82;;;22.10;27.90;;;;;;5093283;28;20028;-73
2021/03/06 08:51:57;;;;;;;12.50;0.90;;;22.10;27.90;;;;;;5093185;28;20044;-73
2021/03/06 08:54:23;;;;;;;1.30;0.82;;;22.10;28.00;;;;;;5087850;28;20036;-73
2021/03/06 08:56:49;;;;;;;1.30;0.52;;;22.10;28.00;;;;;;5094509;28;20407;-73
2021/03/06 08:59:14;;;;;;;2.35;1.52;;;22.10;28.00;;;;;;5093586;28;20095;-73
2021/03/06 09:01:40;;;;;;;2.80;1.50;;;22.10;28.00;;;;;;5092024;28;20519;-73
2021/03/06 09:04:06;;;;;;;2.85;1.10;;;22.20;28.00;;;;;;5095024;28;20016;-73
2021/03/06 09:06:41;;;;;;;1.85;0.60;;;22.20;28.00;;;;;;5088757;28;20588;-72
2021/03/06 09:09:10;;;;;;;1.92;0.68;;;22.20;27.90;;;;;;5087482;28;20035;-72
2021/03/06 09:11:58;;;;;;;6.97;1.20;;;22.20;28.00;;;;;;5089946;28;20427;-72
2021/03/06 09:14:24;;;;;;;1.05;0.70;;;22.20;28.00;;;;;;5093837;28;20069;-70
2021/03/06 09:16:50;;;;;;;0.73;0.60;;;22.20;28.00;;;;;;5091488;28;20166;-70
2021/03/06 09:19:27;;;;;;;2.17;1.25;;;22.30;27.90;;;;;;5088950;28;20021;-70
2021/03/06 09:22:27;;;;;;;4.00;1.17;;;22.40;27.80;;;;;;5070236;28;20024;-70
2021/03/06 09:24:52;;;;;;;3.72;0.77;;;22.60;27.70;;;;;;5092865;28;20031;-70
2021/03/06 09:27:18;;;;;;;1.02;0.70;;;22.60;27.50;;;;;;5087697;28;20033;-72
2021/03/06 09:29:44;;;;;;;2.22;1.30;;;22.70;27.50;;;;;;5092929;28;20063;-72
2021/03/06 09:32:14;;;;;;;0.80;0.80;;;22.70;27.40;;;;;;5094749;28;20054;-70
2021/03/06 09:34:42;;;;;;;3.45;1.17;;;22.80;27.40;;;;;;5090114;28;20107;-69
2021/03/06 09:37:18;;;;;;;3.92;0.73;;;22.80;27.40;;;;;;5072918;28;20115;-70
2021/03/06 09:39:43;;;;;;;;;;;22.80;27.40;;;;;;5074838;28;20062;-72
2021/03/06 09:42:16;;;;;;;2.00;1.23;;;22.90;27.40;;;;;;5072058;28;20375;-72
2021/03/06 09:44:48;;;;;;;2.45;0.85;;;23.00;27.30;;;;;;5086271;28;20270;-73
2021/03/06 09:47:21;;;;;;;1.45;0.70;;;23.00;27.20;;;;;;5076726;28;20067;-73
2021/03/06 09:49:47;;;;;;;0.70;0.65;;;23.10;27.20;;;;;;5090369;28;20127;-74
2021/03/06 09:52:13;;;;;;;1.02;0.70;;;23.10;27.10;;;;;;5061434;28;20036;-73
2021/03/06 09:54:38;;;;;;;1.10;1.00;;;23.10;27.00;;;;;;5088933;28;20403;-74
2021/03/06 09:57:06;;;;;;;1.75;0.80;;;23.20;27.00;;;;;;5103041;27;20473;-78
2021/03/06 09:59:39;;;;;;;5.85;1.05;;;23.10;26.80;;;;;;5087460;28;20044;-78
2021/03/06 10:02:08;;;;;;;1.45;1.05;;;23.20;26.80;;;;;;5084530;28;20024;-79
2021/03/06 10:04:34;;;;;;;1.10;0.82;;;23.20;26.80;;;;;;5076615;28;20054;-79
2021/03/06 10:07:00;;;;;;;4.15;1.00;;;23.10;26.90;;;;;;5089634;28;20068;-79
2021/03/06 10:09:30;;;;;;;2.13;1.13;;;23.10;26.90;;;;;;5088009;28;20039;-79
2021/03/06 10:12:02;;;;;;;0.93;0.90;;;23.00;26.90;;;;;;5086558;28;20419;-79
2021/03/06 10:14:28;;;;;;;1.40;0.93;;;23.00;26.80;;;;;;5103054;28;20445;-79
2021/03/06 10:16:56;;;;;;;3.13;0.90;;;23.00;26.80;;;;;;5081542;28;20028;-74
2021/03/06 10:19:23;;;;;;;0.85;0.80;;;23.00;26.80;;;;;;5084321;28;20035;-74
2021/03/06 10:22:08;;;;;;;1.10;0.47;;;23.00;26.90;;;;;;5071174;28;20035;-73
2021/03/06 10:24:57;;;;;;;2.60;0.85;;;23.00;26.80;;;;;;5086192;28;20077;-74
2021/03/06 10:27:38;;;;;;;1.25;1.00;;;23.00;26.90;;;;;;5090378;28;20099;-74
2021/03/06 10:30:27;;;;;;;1.80;1.02;;;23.00;26.90;;;;;;5089355;28;20082;-73
2021/03/06 10:33:03;;;;;;;2.10;1.05;;;23.00;26.90;;;;;;5085333;28;20051;-73
2021/03/06 10:35:42;;;;;;;1.30;1.10;;;23.00;26.90;;;;;;5087335;28;20036;-73
2021/03/06 10:38:13;;;;;;;1.20;1.10;;;23.00;26.80;;;;;;5086315;28;20016;-74
2021/03/06 10:40:44;;;;;;;2.65;0.63;;;23.00;27.30;;;;;;5092508;28;20089;-74
2021/03/06 10:43:47;;;;;;;2.20;0.77;;;23.00;26.70;;;;;;5082448;28;20047;-72
2021/03/06 10:46:17;;;;;;;0.65;0.65;;;23.00;26.70;;;;;;5087053;28;20020;-73
2021/03/06 10:48:44;;;;;;;4.10;1.05;;;23.00;26.70;;;;;;5088684;28;20051;-73
2021/03/06 10:51:09;;;;;;;1.17;0.63;;;23.00;26.70;;;;;;5092031;28;20095;-73
2021/03/06 10:53:35;;;;;;;4.05;1.15;;;23.00;26.70;;;;;;5085132;28;20119;-75
2021/03/06 10:56:04;;;;;;;0.88;0.63;;;23.00;26.60;;;;;;5090270;28;20028;-73
2021/03/06 10:58:48;;;;;;;1.73;0.90;;;23.00;26.60;;;;;;5070246;28;20058;-73
2021/03/06 11:01:17;;;;;;;0.90;0.50;;;23.00;26.60;;;;;;5081652;28;20036;-74
2021/03/06 11:03:44;;;;;;;2.78;1.10;;;23.00;27.10;;;;;;5083791;28;20502;-74
2021/03/06 11:06:15;;;;;;;0.30;0.30;;;23.00;26.70;;;;;;5088491;28;20129;-75
2021/03/06 11:08:42;;;;;;;0.52;0.50;;;23.10;26.70;;;;;;5072448;28;20047;-74
2021/03/06 11:11:08;;;;;;;0.85;0.57;;;23.00;26.70;;;;;;5069653;28;20575;-74
2021/03/06 11:13:38;;;;;;;1.23;1.00;;;23.10;26.70;;;;;;5086168;28;20081;-73
2021/03/06 11:16:04;;;;;;;1.35;0.60;;;23.10;26.70;;;;;;5073652;28;20031;-74
2021/03/06 11:18:29;;;;;;;2.17;1.17;;;23.20;26.50;;;;;;5082071;28;20032;-78
2021/03/06 11:20:55;;;;;;;1.00;0.82;;;23.20;26.40;;;;;;5098479;28;20040;-74
2021/03/06 11:23:20;;;;;;;1.92;0.65;;;23.30;26.30;;;;;;5086536;28;20119;-72
2021/03/06 11:25:46;;;;;;;1.60;1.20;;;23.40;26.10;;;;;;5073170;28;21746;-73
2021/03/06 11:28:15;;;;;;;2.78;0.88;;;23.40;25.90;;;;;;5084355;28;20032;-73
2021/03/06 11:30:45;;;;;;;1.58;0.98;;;23.50;25.60;;;;;;5091754;28;20028;-74
2021/03/06 11:33:15;;;;;;;3.60;0.88;;;23.50;25.30;;;;;;5070701;28;21888;-71
2021/03/06 11:35:41;;;;;;;1.67;0.93;;;23.50;25.10;;;;;;5098116;28;20057;-77
2021/03/06 11:38:07;;;;;;;5.47;1.27;;;23.50;24.80;;;;;;5090830;28;20437;-77
2021/03/06 11:40:34;;;;;;;0.82;0.50;;;23.50;24.70;;;;;;5104436;28;20549;-79
2021/03/06 11:43:00;;;;;;;3.63;0.93;;;23.60;24.60;;;;;;5072970;28;20140;-72
2021/03/06 11:45:25;;;;;;;1.52;0.90;;;23.60;24.60;;;;;;5072338;28;20488;-72
2021/03/06 11:47:51;;;;;;;0.77;0.70;;;23.60;24.50;;;;;;5087698;28;20138;-72
2021/03/06 11:50:19;;;;;;;0.43;0.40;;;23.70;24.50;;;;;;5086081;28;20027;-71
2021/03/06 11:53:34;;;;;;;1.95;0.60;;;23.70;24.50;;;;;;5089008;28;20035;-71
2021/03/06 11:56:00;;;;;;;0.55;0.40;;;23.70;24.50;;;;;;5085983;28;20060;-72
2021/03/06 11:58:25;;;;;;;11.18;1.05;;;23.70;24.40;;;;;;5088275;28;20044;-72
2021/03/06 12:00:51;;;;;;;4.18;0.50;;;23.80;24.60;;;;;;5083674;28;20094;-72
2021/03/06 12:03:16;;;;;;;0.43;0.43;;;23.80;24.60;;;;;;5089995;28;20024;-72
2021/03/06 12:05:42;;;;;;;1.20;0.60;;;23.90;24.70;;;;;;5084094;28;20097;-72
2021/03/06 12:08:08;;;;;;;2.72;0.65;;;23.90;24.60;;;;;;5081621;28;20032;-71
2021/03/06 12:10:33;;;;;;;0.40;0.40;;;23.90;24.50;;;;;;5090130;28;20094;-72
2021/03/06 12:13:52;;;;;;;1.08;0.60;;;23.90;24.40;;;;;;5089286;28;20032;-72
2021/03/06 12:16:17;;;;;;;1.30;0.85;;;24.00;24.40;;;;;;5080875;28;20086;-71
2021/03/06 12:18:43;;;;;;;0.68;0.65;;;24.00;24.40;;;;;;5084753;28;20108;-71
2021/03/06 12:21:09;;;;;;;0.60;0.20;;;24.00;24.30;;;;;;5082652;28;20103;-72
2021/03/06 12:23:34;;;;;;;1.15;0.47;;;24.00;24.30;;;;;;5086068;28;20020;-72
2021/03/06 12:26:00;;;;;;;1.85;0.35;;;24.00;24.30;;;;;;5077754;28;20028;-72
2021/03/06 12:28:25;;;;;;;0.47;0.20;;;24.00;24.40;;;;;;5090147;28;20052;-72
2021/03/06 12:30:51;;;;;;;0.50;0.40;;;24.00;24.50;;;;;;5090344;28;20511;-71
2021/03/06 12:33:16;;;;;;;1.17;0.40;;;24.00;24.50;;;;;;5090784;28;20123;-72
2021/03/06 12:35:42;;;;;;;0.50;0.50;;;24.00;24.40;;;;;;5070647;28;20041;-81
2021/03/06 12:38:11;;;;;;;0.50;0.50;;;24.00;24.40;;;;;;5084286;28;20557;-82
2021/03/06 12:40:36;;;;;;;0.28;0.22;;;24.00;24.40;;;;;;5075702;28;20039;-82
2021/03/06 12:43:02;;;;;;;0.20;0.20;;;24.00;24.40;;;;;;5086562;28;20095;-82
2021/03/06 12:45:28;;;;;;;0.20;0.20;;;24.00;24.30;;;;;;5094139;28;20107;-82
2021/03/06 12:47:53;;;;;;;0.50;0.40;;;23.90;24.30;;;;;;5095526;28;20571;-81
2021/03/06 12:50:19;;;;;;;0.45;0.32;;;24.00;24.50;;;;;;5095304;28;20039;-82
2021/03/06 12:52:46;;;;;;;0.80;0.30;;;24.00;24.40;;;;;;5093535;28;20434;-82
2021/03/06 12:55:12;;;;;;;0.40;0.25;;;24.00;24.40;;;;;;5077561;28;20056;-83
2021/03/06 12:57:37;;;;;;;0.40;0.15;;;24.00;24.40;;;;;;5078995;28;20050;-83
2021/03/06 13:00:04;;;;;;;0.65;0.50;;;24.00;24.30;;;;;;5094597;28;20012;-85
2021/03/06 13:02:30;;;;;;;0.40;0.40;;;24.00;24.30;;;;;;5085190;28;20028;-84